createdAt,value
2023-04-30T00:00:41.389Z,0.28
2023-04-30T00:03:09.433Z,0.20
2023-04-30T00:05:38.590Z,0.20
2023-04-30T00:08:06.663Z,0.20
2023-04-30T00:10:34.553Z,0.30
2023-04-30T00:13:02.566Z,0.25
2023-04-30T00:15:31.176Z,0.20
2023-04-30T00:18:00.681Z,0.20
2023-04-30T00:20:28.702Z,0.47
2023-04-30T00:22:56.935Z,0.30
2023-04-30T00:25:25.027Z,0.40
2023-04-30T00:27:53.033Z,0.30
2023-04-30T00:30:21.149Z,0.28
2023-04-30T00:32:49.209Z,0.30
2023-04-30T00:35:18.917Z,0.30
2023-04-30T00:37:47.755Z,0.40
2023-04-30T00:40:15.822Z,0.30
2023-04-30T00:42:43.762Z,0.30
2023-04-30T00:45:12.100Z,0.30
2023-04-30T00:47:40.264Z,0.50
2023-04-30T00:50:09.834Z,0.30
2023-04-30T00:52:39.280Z,0.38
2023-04-30T00:55:08.312Z,0.40
2023-04-30T00:57:37.213Z,0.30
2023-04-30T01:00:06.304Z,0.40
2023-04-30T01:02:34.666Z,0.30
2023-04-30T01:05:03.906Z,0.28
2023-04-30T01:07:34.499Z,0.30
2023-04-30T01:10:04.203Z,0.20
2023-04-30T01:12:40.477Z,0.20
2023-04-30T01:15:16.380Z,0.25
2023-04-30T01:17:50.117Z,0.40
2023-04-30T01:20:18.434Z,0.30
2023-04-30T01:22:52.194Z,0.40
2023-04-30T01:25:55.149Z,0.30
2023-04-30T01:28:25.697Z,0.30
2023-04-30T01:30:54.403Z,0.30
2023-04-30T01:33:22.580Z,0.30
2023-04-30T01:36:19.474Z,0.30
2023-04-30T01:39:08.510Z,0.20
2023-04-30T01:41:41.275Z,0.40
2023-04-30T01:44:30.517Z,0.30
2023-04-30T01:47:06.287Z,0.20
2023-04-30T01:49:45.716Z,0.20
2023-04-30T01:52:21.829Z,0.22
2023-04-30T01:54:53.882Z,0.25
2023-04-30T01:57:28.015Z,0.30
2023-04-30T01:59:57.663Z,0.30
2023-04-30T02:02:25.762Z,0.30
2023-04-30T02:04:53.952Z,0.38
2023-04-30T02:07:34.688Z,0.30
2023-04-30T02:10:03.332Z,0.30
2023-04-30T02:12:31.389Z,0.30
2023-04-30T02:15:00.888Z,0.30
2023-04-30T02:17:28.865Z,0.30
2023-04-30T02:19:56.995Z,0.20
2023-04-30T02:22:25.128Z,0.20
2023-04-30T02:24:55.460Z,0.20
2023-04-30T02:27:25.199Z,0.20
2023-04-30T02:29:54.085Z,0.20
2023-04-30T02:32:23.879Z,0.50
2023-04-30T02:34:51.905Z,0.30
2023-04-30T02:37:20.041Z,0.30
2023-04-30T02:39:47.981Z,0.30
2023-04-30T02:42:16.279Z,0.30
2023-04-30T02:44:44.660Z,0.30
2023-04-30T02:47:12.654Z,0.40
2023-04-30T02:49:42.251Z,0.20
2023-04-30T02:52:10.252Z,0.20
2023-04-30T02:54:38.992Z,0.20
2023-04-30T02:57:07.127Z,0.30
2023-04-30T02:59:35.489Z,0.20
2023-04-30T03:02:03.500Z,0.20
2023-04-30T03:04:31.668Z,0.30
2023-04-30T03:07:01.100Z,0.20
2023-04-30T03:09:29.282Z,0.30
2023-04-30T03:11:57.236Z,0.20
2023-04-30T03:14:25.268Z,0.20
2023-04-30T03:16:53.316Z,0.20
2023-04-30T03:19:25.136Z,0.30
2023-04-30T03:21:53.606Z,0.20
2023-04-30T03:24:23.033Z,0.30
2023-04-30T03:26:51.015Z,0.20
2023-04-30T03:29:19.618Z,0.28
2023-04-30T03:31:47.904Z,0.20
2023-04-30T03:34:16.142Z,0.22
2023-04-30T03:36:44.404Z,0.30
2023-04-30T03:39:12.400Z,0.30
2023-04-30T03:41:41.993Z,0.30
2023-04-30T03:44:15.604Z,0.25
2023-04-30T03:46:44.063Z,0.25
2023-04-30T03:49:12.429Z,0.20
2023-04-30T03:51:41.863Z,0.20
2023-04-30T03:54:10.200Z,0.32
2023-04-30T03:56:38.960Z,0.30
2023-04-30T03:59:08.452Z,0.30
2023-04-30T04:01:36.497Z,0.20
2023-04-30T04:04:04.762Z,0.40
2023-04-30T04:06:34.001Z,0.40
2023-04-30T04:09:02.258Z,0.40
2023-04-30T04:11:30.326Z,0.30
2023-04-30T04:13:58.813Z,0.47
2023-04-30T04:16:28.401Z,0.68
2023-04-30T04:18:56.438Z,0.43
2023-04-30T04:21:24.437Z,0.40
2023-04-30T04:23:52.359Z,0.40
2023-04-30T04:26:21.597Z,0.40
2023-04-30T04:28:50.115Z,0.40
2023-04-30T04:31:18.109Z,0.30
2023-04-30T04:33:47.777Z,0.40
2023-04-30T04:36:16.235Z,0.40
2023-04-30T04:38:44.303Z,0.47
2023-04-30T04:41:12.304Z,0.32
2023-04-30T04:43:41.102Z,0.30
2023-04-30T04:46:13.015Z,0.30
2023-04-30T04:48:42.369Z,0.38
2023-04-30T04:51:11.886Z,0.43
2023-04-30T04:53:40.101Z,0.45
2023-04-30T04:56:09.003Z,0.35
2023-04-30T04:58:37.233Z,0.60
2023-04-30T05:01:06.044Z,0.40
2023-04-30T05:03:37.050Z,0.30
2023-04-30T05:06:05.509Z,0.30
2023-04-30T05:08:34.856Z,0.40
2023-04-30T05:11:02.940Z,0.40
2023-04-30T05:13:31.189Z,0.50
2023-04-30T05:15:59.184Z,0.50
2023-04-30T05:18:27.229Z,0.57
2023-04-30T05:20:55.195Z,0.35
2023-04-30T05:23:23.208Z,0.50
2023-04-30T05:25:55.135Z,0.50
2023-04-30T05:28:23.134Z,0.50
2023-04-30T05:30:51.906Z,0.40
2023-04-30T05:33:19.849Z,0.45
2023-04-30T05:35:47.899Z,0.88
2023-04-30T05:38:15.832Z,0.40
2023-04-30T05:40:43.954Z,0.30
2023-04-30T05:43:13.387Z,0.38
2023-04-30T05:45:41.498Z,0.40
2023-04-30T05:48:09.540Z,0.40
2023-04-30T05:50:37.639Z,0.40
2023-04-30T05:53:05.619Z,0.45
2023-04-30T05:55:33.910Z,0.30
2023-04-30T05:58:01.926Z,0.30
2023-04-30T06:00:31.353Z,0.40
2023-04-30T06:02:59.342Z,0.30
2023-04-30T06:05:27.691Z,0.20
2023-04-30T06:07:55.734Z,0.40
2023-04-30T06:10:23.769Z,0.43
2023-04-30T06:12:52.231Z,0.40
2023-04-30T06:15:20.280Z,0.32
2023-04-30T06:17:49.792Z,0.50
2023-04-30T06:20:17.873Z,0.52
2023-04-30T06:22:45.953Z,0.30
2023-04-30T06:25:14.015Z,0.55
2023-04-30T06:27:41.987Z,0.40
2023-04-30T06:30:10.740Z,0.43
2023-04-30T06:32:38.825Z,0.40
2023-04-30T06:35:08.964Z,0.30
2023-04-30T06:37:38.051Z,0.40
2023-04-30T06:40:07.526Z,0.40
2023-04-30T06:42:35.988Z,0.80
2023-04-30T06:45:06.600Z,0.40
2023-04-30T06:47:36.388Z,0.32
2023-04-30T06:50:05.664Z,0.38
2023-04-30T06:52:35.090Z,0.40
2023-04-30T06:55:03.534Z,0.40
2023-04-30T06:57:31.911Z,0.40
2023-04-30T07:00:00.618Z,0.55
2023-04-30T07:02:28.819Z,0.38
2023-04-30T07:04:56.866Z,0.85
2023-04-30T07:07:25.087Z,0.40
2023-04-30T07:09:54.986Z,0.35
2023-04-30T07:12:23.317Z,0.50
2023-04-30T07:14:51.280Z,0.32
2023-04-30T07:17:19.356Z,0.70
2023-04-30T07:19:47.362Z,0.43
2023-04-30T07:22:15.322Z,0.60
2023-04-30T07:24:43.379Z,0.50
2023-04-30T07:27:12.700Z,0.32
2023-04-30T07:29:40.636Z,0.65
2023-04-30T07:32:08.584Z,0.55
2023-04-30T07:34:36.555Z,0.60
2023-04-30T07:37:04.574Z,0.80
2023-04-30T07:39:32.508Z,0.40
2023-04-30T07:42:02.616Z,0.57
2023-04-30T07:44:33.831Z,0.60
2023-04-30T07:47:01.851Z,0.40
2023-04-30T07:49:29.831Z,0.40
2023-04-30T07:51:57.943Z,0.45
2023-04-30T07:54:26.370Z,0.50
2023-04-30T07:59:24.483Z,0.40
2023-04-30T08:01:54.038Z,0.55
2023-04-30T08:04:22.036Z,0.52
2023-04-30T08:06:50.281Z,0.47
2023-04-30T08:09:18.344Z,0.60
2023-04-30T08:11:46.496Z,0.40
2023-04-30T08:14:14.374Z,0.50
2023-04-30T08:16:42.456Z,0.65
2023-04-30T08:19:12.027Z,0.47
2023-04-30T08:21:40.591Z,0.30
2023-04-30T08:24:08.656Z,0.50
2023-04-30T08:26:36.719Z,0.50
2023-04-30T08:29:04.644Z,0.50
2023-04-30T08:31:32.914Z,0.40
2023-04-30T08:34:00.945Z,0.40
2023-04-30T08:36:30.297Z,0.60
2023-04-30T08:38:58.546Z,0.50
2023-04-30T08:41:28.355Z,0.60
2023-04-30T08:44:00.790Z,0.40
2023-04-30T08:46:31.635Z,0.70
2023-04-30T08:48:59.891Z,0.50
2023-04-30T08:51:31.855Z,0.60
2023-04-30T08:53:59.868Z,0.57
2023-04-30T08:56:29.580Z,0.50
2023-04-30T08:58:57.599Z,0.85
2023-04-30T09:01:26.888Z,0.80
2023-04-30T09:03:55.112Z,0.63
2023-04-30T09:06:23.258Z,1.02
2023-04-30T09:08:54.264Z,0.75
2023-04-30T09:11:26.373Z,0.50
2023-04-30T09:13:55.800Z,0.60
2023-04-30T09:16:24.631Z,0.50
2023-04-30T09:18:53.501Z,0.70
2023-04-30T09:21:33.386Z,0.50
2023-04-30T09:24:05.151Z,0.45
2023-04-30T09:26:34.734Z,0.50
2023-04-30T09:29:07.958Z,0.40
2023-04-30T09:31:37.444Z,0.63
2023-04-30T09:34:06.114Z,0.77
2023-04-30T09:36:34.650Z,0.47
2023-04-30T09:39:14.159Z,0.50
2023-04-30T09:41:43.562Z,0.50
2023-04-30T09:44:28.401Z,0.50
2023-04-30T09:46:57.716Z,0.60
2023-04-30T09:49:26.465Z,0.50
2023-04-30T09:51:58.317Z,0.63
2023-04-30T09:54:30.514Z,0.73
2023-04-30T09:57:01.577Z,0.70
2023-04-30T09:59:32.044Z,1.00
2023-04-30T10:02:02.048Z,1.08
2023-04-30T10:04:33.330Z,0.75
2023-04-30T10:07:03.558Z,0.80
2023-04-30T10:09:41.287Z,0.80
2023-04-30T10:12:15.527Z,0.60
2023-04-30T10:14:48.983Z,0.75
2023-04-30T10:17:18.416Z,0.95
2023-04-30T10:19:50.980Z,1.13
2023-04-30T10:22:20.791Z,0.70
2023-04-30T10:24:51.695Z,0.80
2023-04-30T10:27:20.251Z,0.90
2023-04-30T10:29:49.975Z,0.60
2023-04-30T10:32:18.714Z,0.50
2023-04-30T10:34:54.109Z,0.60
2023-04-30T10:37:39.800Z,0.68
2023-04-30T10:40:10.338Z,0.50
2023-04-30T10:42:38.698Z,0.70
2023-04-30T10:45:11.663Z,0.68
2023-04-30T10:47:43.680Z,0.98
2023-04-30T10:50:12.823Z,0.90
2023-04-30T10:52:40.804Z,0.60
2023-04-30T10:55:11.315Z,0.65
2023-04-30T10:57:43.687Z,0.75
2023-04-30T11:00:21.784Z,0.60
2023-04-30T11:02:50.112Z,0.55
2023-04-30T11:05:19.600Z,0.70
2023-04-30T11:07:50.422Z,0.60
2023-04-30T11:10:22.638Z,0.60
2023-04-30T11:12:51.571Z,0.60
2023-04-30T11:15:22.645Z,0.50
2023-04-30T11:17:51.417Z,0.50
2023-04-30T11:20:22.420Z,0.50
2023-04-30T11:23:08.881Z,0.50
2023-04-30T11:25:42.975Z,0.73
2023-04-30T11:28:15.476Z,0.60
2023-04-30T11:30:51.576Z,0.50
2023-04-30T11:33:20.591Z,0.52
2023-04-30T11:35:49.992Z,0.60
2023-04-30T11:38:18.883Z,0.60
2023-04-30T11:40:50.056Z,0.60
2023-04-30T11:43:26.015Z,0.40
2023-04-30T11:46:02.305Z,0.95
2023-04-30T11:48:33.989Z,0.50
2023-04-30T11:51:05.401Z,0.60
2023-04-30T11:53:33.442Z,0.50
2023-04-30T11:56:06.435Z,0.50
2023-04-30T11:58:39.358Z,0.40
2023-04-30T12:01:09.621Z,0.75
2023-04-30T12:03:49.155Z,0.80
2023-04-30T12:06:23.289Z,0.43
2023-04-30T12:08:53.715Z,0.75
2023-04-30T12:11:25.220Z,0.50
2023-04-30T12:13:55.238Z,0.47
2023-04-30T12:16:25.038Z,0.30
2023-04-30T12:18:53.315Z,0.35
2023-04-30T12:21:23.464Z,0.85
2023-04-30T12:23:51.734Z,0.45
2023-04-30T12:26:19.677Z,0.50
2023-04-30T12:28:50.570Z,0.55
2023-04-30T12:31:19.177Z,0.30
2023-04-30T12:33:58.084Z,0.68
2023-04-30T12:36:33.703Z,1.95
2023-04-30T12:39:08.902Z,0.45
2023-04-30T12:41:43.234Z,0.45
2023-04-30T12:44:20.688Z,0.52
2023-04-30T12:46:49.299Z,0.43
2023-04-30T12:49:25.544Z,0.30
2023-04-30T12:51:53.719Z,0.50
2023-04-30T12:54:28.953Z,0.40
2023-04-30T12:57:02.032Z,0.40
2023-04-30T12:59:32.397Z,0.40
2023-04-30T13:02:18.185Z,0.40
2023-04-30T13:04:46.298Z,0.40
2023-04-30T13:07:14.318Z,0.40
2023-04-30T13:09:42.261Z,0.45
2023-04-30T13:12:10.264Z,0.65
2023-04-30T13:14:39.682Z,0.35
2023-04-30T13:17:09.769Z,0.30
2023-04-30T13:19:37.801Z,0.40
2023-04-30T13:22:05.823Z,1.30
2023-04-30T13:24:33.928Z,0.55
2023-04-30T13:27:02.871Z,0.40
2023-04-30T13:29:31.849Z,0.20
2023-04-30T13:32:01.192Z,0.50
2023-04-30T13:34:29.215Z,0.30
2023-04-30T13:36:57.306Z,0.30
2023-04-30T13:39:25.385Z,0.30
2023-04-30T13:41:53.412Z,0.30
2023-04-30T13:44:21.317Z,0.30
2023-04-30T13:46:50.153Z,0.30
2023-04-30T13:49:19.585Z,0.43
2023-04-30T13:51:47.613Z,0.40
2023-04-30T13:54:15.617Z,0.20
2023-04-30T13:56:43.653Z,0.40
2023-04-30T13:59:12.280Z,0.40
2023-04-30T14:01:40.832Z,0.50
2023-04-30T14:04:09.192Z,0.50
2023-04-30T14:06:39.406Z,0.50
2023-04-30T14:09:07.580Z,0.50
2023-04-30T14:11:35.691Z,0.70
2023-04-30T14:14:03.802Z,0.80
2023-04-30T14:16:31.816Z,1.20
2023-04-30T14:18:59.801Z,0.90
2023-04-30T14:21:28.633Z,0.75
2023-04-30T14:23:58.154Z,0.70
2023-04-30T14:26:26.289Z,0.73
2023-04-30T14:28:54.337Z,0.90
2023-04-30T14:31:22.254Z,0.70
2023-04-30T14:33:50.326Z,0.50
2023-04-30T14:36:18.342Z,0.52
2023-04-30T14:38:46.276Z,0.50
2023-04-30T14:41:15.693Z,0.30
2023-04-30T14:43:48.401Z,0.50
2023-04-30T14:46:18.899Z,0.35
2023-04-30T14:48:50.729Z,0.40
2023-04-30T14:51:18.748Z,0.50
2023-04-30T14:53:46.820Z,0.40
2023-04-30T14:56:16.230Z,0.35
2023-04-30T14:58:44.210Z,0.30
2023-04-30T15:01:12.393Z,0.52
2023-04-30T15:03:40.675Z,0.30
2023-04-30T15:06:08.973Z,0.40
2023-04-30T15:08:36.964Z,0.40
2023-04-30T15:11:07.025Z,0.40
2023-04-30T15:13:36.443Z,0.40
2023-04-30T15:16:04.650Z,0.30
2023-04-30T15:18:33.147Z,0.40
2023-04-30T15:21:02.125Z,0.50
2023-04-30T15:23:30.499Z,0.20
2023-04-30T15:25:58.605Z,0.25
2023-04-30T15:28:26.795Z,0.28
2023-04-30T15:30:56.275Z,0.35
2023-04-30T15:33:27.320Z,0.40
2023-04-30T15:35:55.978Z,0.50
2023-04-30T15:38:24.006Z,0.40
2023-04-30T15:40:52.137Z,0.38
2023-04-30T15:43:21.282Z,0.28
2023-04-30T15:45:49.447Z,0.30
2023-04-30T15:48:18.822Z,0.30
2023-04-30T15:50:46.889Z,0.22
2023-04-30T15:53:14.821Z,0.30
2023-04-30T15:55:43.194Z,0.40
2023-04-30T15:58:11.282Z,0.40
2023-04-30T16:00:39.735Z,0.47
2023-04-30T16:03:07.884Z,0.50
2023-04-30T16:05:40.389Z,0.30
2023-04-30T16:08:09.542Z,0.50
2023-04-30T16:10:38.685Z,0.60
2023-04-30T16:13:06.835Z,0.30
2023-04-30T16:15:34.830Z,0.30
2023-04-30T16:18:03.017Z,0.40
2023-04-30T16:20:32.615Z,0.40
2023-04-30T16:23:01.994Z,0.50
2023-04-30T16:25:30.514Z,0.47
2023-04-30T16:27:58.486Z,0.47
2023-04-30T16:30:26.689Z,0.40
2023-04-30T16:32:54.607Z,0.40
2023-04-30T16:35:22.661Z,0.40
2023-04-30T16:37:50.688Z,0.30
2023-04-30T16:40:20.060Z,0.40
2023-04-30T16:42:48.170Z,0.45
2023-04-30T16:45:17.217Z,0.45
2023-04-30T16:47:45.920Z,0.40
2023-04-30T16:50:13.976Z,0.30
2023-04-30T16:52:42.650Z,0.40
2023-04-30T16:55:11.480Z,0.40
2023-04-30T16:57:41.189Z,0.40
2023-04-30T17:00:11.464Z,0.40
2023-04-30T17:02:40.816Z,0.60
2023-04-30T17:05:10.767Z,0.40
2023-04-30T17:07:38.931Z,0.50
2023-04-30T17:10:08.146Z,0.50
2023-04-30T17:12:36.127Z,0.32
2023-04-30T17:15:06.389Z,0.40
2023-04-30T17:17:34.383Z,0.50
2023-04-30T17:20:02.935Z,0.50
2023-04-30T17:22:30.924Z,0.35
2023-04-30T17:24:59.832Z,0.30
2023-04-30T17:27:28.709Z,0.50
2023-04-30T17:29:57.220Z,0.43
2023-04-30T17:32:27.825Z,0.47
2023-04-30T17:34:55.918Z,0.50
2023-04-30T17:37:23.789Z,0.30
2023-04-30T17:39:51.874Z,0.60
2023-04-30T17:42:19.991Z,0.50
2023-04-30T17:44:48.782Z,0.50
2023-04-30T17:47:17.015Z,0.38
2023-04-30T17:49:46.417Z,0.63
2023-04-30T17:52:14.510Z,0.65
2023-04-30T17:54:42.706Z,0.43
2023-04-30T17:57:10.668Z,0.40
2023-04-30T17:59:40.346Z,0.50
2023-04-30T18:02:08.738Z,0.40
2023-04-30T18:04:36.766Z,0.40
2023-04-30T18:07:08.097Z,0.60
2023-04-30T18:09:36.180Z,0.70
2023-04-30T18:12:04.213Z,0.60
2023-04-30T18:14:32.587Z,0.85
2023-04-30T18:17:00.539Z,0.75
2023-04-30T18:19:28.704Z,0.80
2023-04-30T18:21:57.420Z,0.77
2023-04-30T18:24:28.359Z,0.60
2023-04-30T18:26:56.466Z,0.80
2023-04-30T18:29:24.742Z,0.90
2023-04-30T18:31:53.017Z,0.60
2023-04-30T18:34:21.336Z,0.50
2023-04-30T18:36:49.421Z,0.60
2023-04-30T18:39:17.513Z,0.70
2023-04-30T18:41:46.846Z,0.70
2023-04-30T18:44:14.919Z,0.73
2023-04-30T18:46:42.853Z,0.90
2023-04-30T18:49:10.883Z,0.90
2023-04-30T18:51:38.942Z,0.93
2023-04-30T18:54:06.916Z,1.00
2023-04-30T18:56:35.694Z,1.25
2023-04-30T18:59:05.060Z,1.30
2023-04-30T19:01:33.187Z,1.27
2023-04-30T19:04:01.629Z,1.35
2023-04-30T19:06:30.845Z,1.27
2023-04-30T19:08:59.779Z,1.70
2023-04-30T19:11:27.814Z,2.75
2023-04-30T19:13:55.910Z,3.60
2023-04-30T19:16:25.470Z,3.50
2023-04-30T19:18:53.422Z,4.00
2023-04-30T19:21:21.438Z,2.67
2023-04-30T19:23:49.352Z,3.00
2023-04-30T19:26:17.254Z,3.53
2023-04-30T19:28:45.291Z,3.35
2023-04-30T19:31:13.544Z,3.17
2023-04-30T19:33:43.052Z,3.20
2023-04-30T19:36:12.181Z,2.90
2023-04-30T19:38:40.674Z,2.60
2023-04-30T19:41:08.751Z,2.90
2023-04-30T19:43:37.145Z,2.85
2023-04-30T19:46:05.351Z,4.00
2023-04-30T19:48:33.349Z,3.83
2023-04-30T19:51:04.840Z,3.70
2023-04-30T19:53:33.027Z,3.92
2023-04-30T19:56:01.025Z,3.70
2023-04-30T19:58:29.141Z,4.35
2023-04-30T20:00:57.793Z,4.35
2023-04-30T20:03:26.518Z,4.03
2023-04-30T20:05:54.505Z,3.47
2023-04-30T20:08:24.076Z,2.92
2023-04-30T20:10:52.205Z,2.67
2023-04-30T20:13:24.972Z,3.15
2023-04-30T20:15:53.102Z,2.60
2023-04-30T20:18:21.224Z,3.00
2023-04-30T20:20:49.364Z,3.03
2023-04-30T20:23:19.279Z,3.92
2023-04-30T20:25:50.107Z,2.45
2023-04-30T20:28:19.152Z,3.17
2023-04-30T20:30:48.113Z,3.00
2023-04-30T20:33:16.418Z,3.22
2023-04-30T20:35:45.494Z,3.10
2023-04-30T20:38:13.763Z,3.35
2023-04-30T20:40:41.710Z,2.70
2023-04-30T20:43:12.817Z,3.08
2023-04-30T20:45:42.436Z,3.10
2023-04-30T20:48:10.526Z,2.70
2023-04-30T20:50:38.704Z,2.85
2023-04-30T20:53:08.351Z,2.72
2023-04-30T20:55:37.578Z,2.90
2023-04-30T20:58:06.837Z,2.85
2023-04-30T21:00:36.258Z,2.88
2023-04-30T21:03:04.733Z,2.70
2023-04-30T21:05:33.024Z,2.67
2023-04-30T21:08:01.938Z,2.45
2023-04-30T21:10:35.174Z,2.70
2023-04-30T21:13:05.178Z,2.33
2023-04-30T21:15:35.733Z,2.22
2023-04-30T21:18:05.293Z,2.22
2023-04-30T21:20:33.443Z,2.33
2023-04-30T21:23:03.290Z,2.38
2023-04-30T21:25:31.326Z,2.03
2023-04-30T21:27:59.409Z,1.90
2023-04-30T21:30:27.548Z,1.98
2023-04-30T21:32:58.393Z,2.20
2023-04-30T21:35:33.007Z,1.38
2023-04-30T21:38:01.124Z,1.90
2023-04-30T21:40:32.130Z,1.83
2023-04-30T21:43:00.718Z,2.05
2023-04-30T21:45:28.770Z,1.80
2023-04-30T21:47:57.024Z,1.40
2023-04-30T21:50:25.206Z,1.45
2023-04-30T21:52:54.478Z,1.30
2023-04-30T21:55:22.769Z,1.65
2023-04-30T21:57:51.686Z,1.35
2023-04-30T22:00:21.156Z,1.27
2023-04-30T22:02:49.688Z,1.20
2023-04-30T22:05:18.965Z,1.48
2023-04-30T22:07:47.344Z,1.35
2023-04-30T22:10:16.663Z,1.20
2023-04-30T22:12:47.410Z,1.10
2023-04-30T22:15:16.384Z,1.00
2023-04-30T22:17:47.696Z,1.23
2023-04-30T22:20:15.619Z,1.10
2023-04-30T22:22:43.688Z,1.05
2023-04-30T22:25:11.649Z,0.98
2023-04-30T22:27:41.193Z,1.08
2023-04-30T22:30:09.963Z,1.35
2023-04-30T22:32:38.618Z,1.23
2023-04-30T22:35:10.595Z,1.02
2023-04-30T22:37:39.363Z,0.95
2023-04-30T22:40:08.326Z,1.13
2023-04-30T22:42:36.539Z,0.98
2023-04-30T22:45:07.267Z,1.20
2023-04-30T22:47:35.524Z,1.10
2023-04-30T22:50:04.037Z,1.10
2023-04-30T22:52:34.271Z,1.10
2023-04-30T22:55:03.221Z,1.30
2023-04-30T22:57:31.301Z,1.08
2023-04-30T22:59:59.376Z,1.30
2023-04-30T23:02:28.926Z,1.08
2023-04-30T23:04:57.137Z,1.10
2023-04-30T23:07:25.304Z,1.00
2023-04-30T23:09:53.422Z,1.20
2023-04-30T23:12:22.436Z,0.85
2023-04-30T23:14:50.914Z,1.17
2023-04-30T23:17:19.011Z,0.88
2023-04-30T23:19:48.404Z,1.10
2023-04-30T23:22:16.634Z,1.35
2023-04-30T23:24:44.602Z,0.90
2023-04-30T23:27:12.524Z,0.85
2023-04-30T23:29:40.548Z,0.98
2023-04-30T23:32:08.715Z,1.10
2023-04-30T23:34:36.928Z,1.10
2023-04-30T23:37:06.347Z,1.10
2023-04-30T23:39:34.295Z,1.30
2023-04-30T23:42:02.650Z,1.20
2023-04-30T23:44:32.488Z,1.65
2023-04-30T23:47:01.396Z,0.93
2023-04-30T23:49:29.434Z,1.25
2023-04-30T23:51:57.476Z,1.23
2023-04-30T23:54:27.148Z,1.13
2023-04-30T23:56:55.429Z,1.20
2023-04-30T23:59:25.232Z,1.25
